createdAt,value
2023-01-09T00:01:35.885Z,100409.34
2023-01-09T00:04:03.084Z,100406.73
2023-01-09T00:06:30.133Z,100399.54
2023-01-09T00:08:57.650Z,100399.39
2023-01-09T00:11:24.633Z,100407.16
2023-01-09T00:13:51.557Z,100407.66
2023-01-09T00:16:18.756Z,100405.60
2023-01-09T00:18:45.989Z,100407.57
2023-01-09T00:21:13.637Z,100406.55
2023-01-09T00:23:40.904Z,100407.38
2023-01-09T00:26:17.191Z,100413.73
2023-01-09T00:28:48.115Z,100408.29
2023-01-09T00:31:15.168Z,100407.40
2023-01-09T00:33:43.843Z,100411.86
2023-01-09T00:36:11.020Z,100409.16
2023-01-09T00:38:38.075Z,100405.20
2023-01-09T00:41:06.553Z,100393.17
2023-01-09T00:43:36.013Z,100393.61
2023-01-09T00:46:04.318Z,100384.33
2023-01-09T00:48:31.628Z,100375.36
2023-01-09T00:50:59.184Z,100369.37
2023-01-09T00:53:28.559Z,100360.69
2023-01-09T00:55:58.176Z,100356.61
2023-01-09T00:58:25.452Z,100354.52
2023-01-09T01:00:52.526Z,100355.43
2023-01-09T01:03:19.585Z,100350.21
2023-01-09T01:06:05.133Z,100346.34
2023-01-09T01:08:31.975Z,100343.58
2023-01-09T01:10:58.895Z,100349.55
2023-01-09T01:13:25.827Z,100350.36
2023-01-09T01:15:52.726Z,100349.56
2023-01-09T01:18:19.630Z,100340.39
2023-01-09T01:20:46.497Z,100332.49
2023-01-09T01:23:13.435Z,100322.77
2023-01-09T01:25:40.996Z,100320.14
2023-01-09T01:28:08.280Z,100328.36
2023-01-09T01:30:42.391Z,100323.81
2023-01-09T01:33:10.049Z,100312.37
2023-01-09T01:35:36.981Z,100306.50
2023-01-09T01:38:04.044Z,100303.60
2023-01-09T01:40:30.922Z,100309.05
2023-01-09T01:42:58.978Z,100300.06
2023-01-09T01:45:29.921Z,100298.52
2023-01-09T01:47:59.790Z,100303.08
2023-01-09T01:50:45.034Z,100301.73
2023-01-09T01:53:24.497Z,100299.06
2023-01-09T01:55:54.375Z,100299.08
2023-01-09T01:58:21.344Z,100288.19
2023-01-09T02:00:48.289Z,100286.84
2023-01-09T02:03:17.797Z,100283.84
2023-01-09T02:05:44.671Z,100281.48
2023-01-09T02:08:11.456Z,100276.27
2023-01-09T02:10:38.353Z,100272.05
2023-01-09T02:13:06.261Z,100271.41
2023-01-09T02:15:44.341Z,100269.56
2023-01-09T02:18:32.400Z,100262.71
2023-01-09T02:21:03.287Z,100250.02
2023-01-09T02:23:54.155Z,100250.61
2023-01-09T02:26:35.095Z,100250.58
2023-01-09T02:29:26.439Z,100242.88
2023-01-09T02:32:23.990Z,100236.52
2023-01-09T02:34:51.042Z,100237.34
2023-01-09T02:37:23.520Z,100239.54
2023-01-09T02:39:55.697Z,100235.55
2023-01-09T02:42:23.997Z,100232.42
2023-01-09T02:44:51.119Z,100234.80
2023-01-09T02:47:18.000Z,100238.23
2023-01-09T02:49:52.657Z,100236.08
2023-01-09T02:52:48.044Z,100229.98
2023-01-09T02:56:03.486Z,100225.24
2023-01-09T02:58:47.021Z,100227.26
2023-01-09T03:01:32.873Z,100220.16
2023-01-09T03:04:19.883Z,100223.02
2023-01-09T03:07:00.689Z,100221.65
2023-01-09T03:09:29.198Z,100225.27
2023-01-09T03:12:00.083Z,100223.28
2023-01-09T03:14:27.066Z,100230.36
2023-01-09T03:16:57.029Z,100227.23
2023-01-09T03:19:26.193Z,100228.33
2023-01-09T03:21:53.027Z,100222.63
2023-01-09T03:24:19.850Z,100214.90
2023-01-09T03:26:46.753Z,100211.70
2023-01-09T03:29:13.701Z,100205.36
2023-01-09T03:31:40.742Z,100200.48
2023-01-09T03:34:07.835Z,100197.23
2023-01-09T03:36:34.806Z,100196.63
2023-01-09T03:39:01.750Z,100196.21
2023-01-09T03:41:28.585Z,100195.66
2023-01-09T03:43:55.481Z,100190.43
2023-01-09T03:46:22.309Z,100191.48
2023-01-09T03:48:49.231Z,100194.14
2023-01-09T03:51:16.188Z,100192.90
2023-01-09T03:53:43.355Z,100192.70
2023-01-09T03:56:10.325Z,100194.59
2023-01-09T03:58:37.260Z,100191.52
2023-01-09T04:01:05.297Z,100187.77
2023-01-09T04:03:32.359Z,100183.34
2023-01-09T04:05:59.234Z,100181.23
2023-01-09T04:08:26.143Z,100178.91
2023-01-09T04:10:53.013Z,100178.77
2023-01-09T04:13:20.116Z,100178.70
2023-01-09T04:15:47.056Z,100173.69
2023-01-09T04:18:14.219Z,100180.31
2023-01-09T04:20:41.691Z,100173.76
2023-01-09T04:23:08.740Z,100173.13
2023-01-09T04:25:35.694Z,100171.04
2023-01-09T04:28:02.565Z,100170.14
2023-01-09T04:30:29.611Z,100165.55
2023-01-09T04:32:56.671Z,100162.25
2023-01-09T04:35:23.587Z,100152.45
2023-01-09T04:37:50.497Z,100154.14
2023-01-09T04:40:18.346Z,100157.10
2023-01-09T04:42:45.261Z,100158.38
2023-01-09T04:45:12.366Z,100156.42
2023-01-09T04:47:39.303Z,100152.27
2023-01-09T04:50:06.572Z,100150.17
2023-01-09T04:52:33.429Z,100149.17
2023-01-09T04:55:00.378Z,100154.78
2023-01-09T04:57:27.433Z,100156.66
2023-01-09T04:59:54.489Z,100152.85
2023-01-09T05:02:21.461Z,100146.33
2023-01-09T05:04:48.496Z,100146.19
2023-01-09T05:07:15.458Z,100145.41
2023-01-09T05:09:43.082Z,100151.46
2023-01-09T05:12:10.080Z,100155.31
2023-01-09T05:14:37.030Z,100148.50
2023-01-09T05:17:04.000Z,100143.92
2023-01-09T05:19:31.042Z,100144.02
2023-01-09T05:21:58.035Z,100150.06
2023-01-09T05:24:24.995Z,100147.58
2023-01-09T05:26:51.931Z,100139.69
2023-01-09T05:29:19.022Z,100138.30
2023-01-09T05:31:47.868Z,100139.35
2023-01-09T05:34:15.876Z,100135.91
2023-01-09T05:36:57.575Z,100135.09
2023-01-09T05:39:30.057Z,100134.00
2023-01-09T05:41:58.035Z,100127.71
2023-01-09T05:44:26.014Z,100128.98
2023-01-09T05:46:53.013Z,100126.92
2023-01-09T05:49:19.912Z,100126.36
2023-01-09T05:52:04.701Z,100130.06
2023-01-09T05:54:31.992Z,100133.94
2023-01-09T05:57:05.046Z,100130.19
2023-01-09T06:02:14.373Z,100128.14
2023-01-09T06:04:46.445Z,100135.30
2023-01-09T06:07:18.013Z,100134.73
2023-01-09T06:09:50.958Z,100133.41
2023-01-09T06:12:26.737Z,100128.29
2023-01-09T06:17:51.996Z,100124.59
2023-01-09T06:20:19.338Z,100128.09
2023-01-09T06:22:46.207Z,100130.44
2023-01-09T06:25:16.668Z,100127.46
2023-01-09T06:27:43.702Z,100123.30
2023-01-09T06:30:23.516Z,100122.23
2023-01-09T06:32:50.613Z,100118.63
2023-01-09T06:35:24.486Z,100117.83
2023-01-09T06:37:53.660Z,100122.58
2023-01-09T06:40:30.040Z,100121.52
2023-01-09T06:43:02.001Z,100116.48
2023-01-09T06:45:34.369Z,100111.75
2023-01-09T06:48:03.393Z,100104.17
2023-01-09T06:50:30.427Z,100101.23
2023-01-09T06:52:57.425Z,100101.00
2023-01-09T06:55:29.860Z,100101.91
2023-01-09T06:57:57.254Z,100107.60
2023-01-09T07:00:24.327Z,100108.65
2023-01-09T07:02:51.474Z,100110.05
2023-01-09T07:05:22.472Z,100104.81
2023-01-09T07:07:49.820Z,100106.27
2023-01-09T07:10:21.803Z,100099.80
2023-01-09T07:12:48.798Z,100099.30
2023-01-09T07:15:15.823Z,100100.10
2023-01-09T07:17:42.812Z,100099.25
2023-01-09T07:20:10.565Z,100098.12
2023-01-09T07:22:37.661Z,100097.46
2023-01-09T07:25:08.164Z,100102.20
2023-01-09T07:30:19.202Z,100096.79
2023-01-09T07:32:53.103Z,100088.34
2023-01-09T07:35:23.977Z,100089.26
2023-01-09T07:37:52.969Z,100096.73
2023-01-09T07:40:29.601Z,100093.13
2023-01-09T07:42:57.735Z,100092.89
2023-01-09T07:45:25.781Z,100094.02
2023-01-09T07:47:52.615Z,100092.18
2023-01-09T07:50:19.761Z,100088.58
2023-01-09T07:52:46.749Z,100093.95
2023-01-09T07:55:15.041Z,100090.34
2023-01-09T07:57:43.527Z,100089.81
2023-01-09T08:00:11.415Z,100093.89
2023-01-09T08:02:41.541Z,100093.47
2023-01-09T08:05:11.087Z,100093.78
2023-01-09T08:07:38.044Z,100101.64
2023-01-09T08:10:06.235Z,100101.55
2023-01-09T08:12:33.385Z,100110.32
2023-01-09T08:15:00.469Z,100103.87
2023-01-09T08:17:27.509Z,100099.20
2023-01-09T08:19:55.435Z,100093.99
2023-01-09T08:22:23.955Z,100094.08
2023-01-09T08:25:00.952Z,100090.23
2023-01-09T08:27:29.819Z,100091.44
2023-01-09T08:29:59.433Z,100085.04
2023-01-09T08:32:29.809Z,100084.63
2023-01-09T08:34:57.001Z,100076.36
2023-01-09T08:37:28.009Z,100071.55
2023-01-09T08:39:57.946Z,100067.25
2023-01-09T08:42:44.381Z,100063.98
2023-01-09T08:45:31.629Z,100054.97
2023-01-09T08:48:00.904Z,100046.82
2023-01-09T08:50:30.600Z,100043.95
2023-01-09T08:53:01.601Z,100043.06
2023-01-09T08:55:32.263Z,100038.31
2023-01-09T09:00:40.133Z,100027.35
2023-01-09T09:03:07.101Z,100024.10
2023-01-09T09:05:39.210Z,100027.05
2023-01-09T09:08:07.448Z,100021.52
2023-01-09T09:10:36.099Z,100014.59
2023-01-09T09:15:44.657Z,100019.77
2023-01-09T09:18:14.592Z,100015.55
2023-01-09T09:23:26.441Z,100010.02
2023-01-09T09:25:56.230Z,99999.23
2023-01-09T09:28:25.926Z,100003.42
2023-01-09T09:33:40.372Z,100006.27
2023-01-09T09:38:56.193Z,100005.17
2023-01-09T09:42:00.120Z,100000.95
2023-01-09T09:44:58.578Z,99999.85
2023-01-09T09:47:45.929Z,99990.10
2023-01-09T09:50:20.204Z,99986.27
2023-01-09T09:53:06.344Z,99987.60
2023-01-09T09:55:43.802Z,99983.35
2023-01-09T09:58:36.367Z,99986.59
2023-01-09T10:01:03.987Z,99990.52
2023-01-09T10:03:49.719Z,99985.88
2023-01-09T10:06:27.230Z,99977.73
2023-01-09T10:09:21.357Z,99970.00
2023-01-09T10:12:09.442Z,99966.60
2023-01-09T10:14:36.420Z,99958.08
2023-01-09T10:17:27.273Z,99955.73
2023-01-09T10:20:03.477Z,99961.41
2023-01-09T10:22:50.490Z,99953.59
2023-01-09T10:25:20.740Z,99955.61
2023-01-09T10:28:25.777Z,99950.44
2023-01-09T10:31:24.178Z,99948.42
2023-01-09T10:34:13.281Z,99950.70
2023-01-09T10:37:12.547Z,99954.29
2023-01-09T10:40:03.057Z,99949.27
2023-01-09T10:42:43.809Z,99948.58
2023-01-09T10:45:30.317Z,99947.73
2023-01-09T10:48:23.783Z,99945.41
2023-01-09T10:50:50.880Z,99947.45
2023-01-09T10:53:22.663Z,99943.58
2023-01-09T10:56:01.273Z,99938.75
2023-01-09T11:01:19.892Z,99941.91
2023-01-09T11:03:47.087Z,99941.52
2023-01-09T11:06:36.753Z,99946.58
2023-01-09T11:09:08.248Z,99936.71
2023-01-09T11:11:42.825Z,99936.66
2023-01-09T11:14:32.325Z,99939.13
2023-01-09T11:17:01.647Z,99933.44
2023-01-09T11:19:29.374Z,99926.04
2023-01-09T11:22:10.240Z,99929.25
2023-01-09T11:24:37.294Z,99917.55
2023-01-09T11:27:23.506Z,99917.77
2023-01-09T11:30:20.461Z,99923.16
2023-01-09T11:32:47.528Z,99925.18
2023-01-09T11:35:27.423Z,99925.58
2023-01-09T11:38:16.153Z,99924.58
2023-01-09T11:40:48.282Z,99923.48
2023-01-09T11:43:30.903Z,99920.05
2023-01-09T11:46:01.467Z,99918.33
2023-01-09T11:48:35.680Z,99913.74
2023-01-09T11:51:17.386Z,99910.64
2023-01-09T11:54:07.461Z,99914.38
2023-01-09T11:56:39.273Z,99917.66
2023-01-09T11:59:20.322Z,99921.36
2023-01-09T12:01:56.614Z,99923.15
2023-01-09T12:04:48.846Z,99917.98
2023-01-09T12:07:38.646Z,99911.38
2023-01-09T12:10:11.832Z,99909.38
2023-01-09T12:12:57.824Z,99907.92
2023-01-09T12:15:34.802Z,99907.42
2023-01-09T12:18:06.583Z,99899.54
2023-01-09T12:20:39.350Z,99898.90
2023-01-09T12:23:32.319Z,99897.87
2023-01-09T12:26:28.871Z,99890.13
2023-01-09T12:29:01.797Z,99894.73
2023-01-09T12:31:53.873Z,99894.77
2023-01-09T12:35:08.326Z,99896.18
2023-01-09T12:37:55.214Z,99898.42
2023-01-09T12:40:55.588Z,99895.73
2023-01-09T12:43:26.493Z,99895.95
2023-01-09T12:46:16.635Z,99894.77
2023-01-09T12:49:05.068Z,99898.14
2023-01-09T12:51:35.938Z,99893.73
2023-01-09T12:57:15.784Z,99905.70
2023-01-09T12:59:49.283Z,99903.19
2023-01-09T13:02:27.972Z,99909.24
2023-01-09T13:05:10.970Z,99910.48
2023-01-09T13:07:46.470Z,99910.63
2023-01-09T13:10:25.579Z,99906.35
2023-01-09T13:12:52.742Z,99911.28
2023-01-09T13:15:53.432Z,99912.17
2023-01-09T13:18:32.984Z,99908.59
2023-01-09T13:21:02.617Z,99906.65
2023-01-09T13:23:53.027Z,99909.55
2023-01-09T13:26:22.029Z,99907.61
2023-01-09T13:28:56.484Z,99905.64
2023-01-09T13:31:49.225Z,99912.82
2023-01-09T13:34:22.805Z,99909.77
2023-01-09T13:36:51.971Z,99908.91
2023-01-09T13:39:26.421Z,99906.27
2023-01-09T13:45:18.800Z,99912.13
2023-01-09T13:47:45.842Z,99920.94
2023-01-09T13:50:26.062Z,99926.15
2023-01-09T13:52:55.232Z,99917.02
2023-01-09T13:55:38.350Z,99916.30
2023-01-09T13:58:14.150Z,99912.42
2023-01-09T14:01:02.190Z,99911.61
2023-01-09T14:03:33.555Z,99916.44
2023-01-09T14:06:10.156Z,99920.05
2023-01-09T14:08:45.084Z,99916.82
2023-01-09T14:11:19.021Z,99918.73
2023-01-09T14:13:46.002Z,99915.39
2023-01-09T14:16:20.318Z,99917.55
2023-01-09T14:18:58.136Z,99911.40
2023-01-09T14:21:25.164Z,99907.48
2023-01-09T14:24:06.497Z,99913.91
2023-01-09T14:26:57.651Z,99913.33
2023-01-09T14:29:41.215Z,99907.34
2023-01-09T14:32:23.635Z,99905.13
2023-01-09T14:35:18.199Z,99906.20
2023-01-09T14:37:56.343Z,99907.59
2023-01-09T14:40:23.989Z,99905.05
2023-01-09T14:42:53.105Z,99910.89
2023-01-09T14:45:25.372Z,99908.02
2023-01-09T14:47:56.078Z,99920.73
2023-01-09T14:50:46.739Z,99924.27
2023-01-09T14:53:22.848Z,99924.99
2023-01-09T14:56:00.459Z,99918.55
2023-01-09T14:58:31.867Z,99919.60
2023-01-09T15:01:06.960Z,99919.13
2023-01-09T15:03:36.838Z,99917.30
2023-01-09T15:06:08.261Z,99918.40
2023-01-09T15:08:35.194Z,99921.24
2023-01-09T15:11:02.199Z,99914.93
2023-01-09T15:13:37.873Z,99920.14
2023-01-09T15:16:06.099Z,99928.40
2023-01-09T15:18:41.262Z,99931.38
2023-01-09T15:21:15.914Z,99927.19
2023-01-09T15:23:43.378Z,99922.75
2023-01-09T15:26:29.510Z,99923.27
2023-01-09T15:29:18.064Z,99922.63
2023-01-09T15:31:46.179Z,99925.56
2023-01-09T15:34:19.249Z,99924.38
2023-01-09T15:36:50.443Z,99923.23
2023-01-09T15:39:24.610Z,99916.41
2023-01-09T15:42:10.479Z,99919.17
2023-01-09T15:44:38.447Z,99918.34
2023-01-09T15:47:06.646Z,99917.14
2023-01-09T15:49:34.142Z,99915.61
2023-01-09T15:52:01.440Z,99916.50
2023-01-09T15:54:32.986Z,99916.40
2023-01-09T15:57:24.940Z,99913.05
2023-01-09T15:59:52.908Z,99918.19
2023-01-09T16:02:39.158Z,99917.15
2023-01-09T16:05:09.067Z,99912.47
2023-01-09T16:07:36.106Z,99916.75
2023-01-09T16:10:03.093Z,99912.64
2023-01-09T16:12:30.097Z,99910.77
2023-01-09T16:15:00.977Z,99911.95
2023-01-09T16:17:30.038Z,99914.38
2023-01-09T16:19:58.448Z,99917.52
2023-01-09T16:22:26.336Z,99917.72
2023-01-09T16:24:54.650Z,99919.31
2023-01-09T16:27:24.206Z,99911.47
2023-01-09T16:29:57.541Z,99907.88
2023-01-09T16:32:30.166Z,99907.87
2023-01-09T16:34:59.819Z,99909.40
2023-01-09T16:37:27.036Z,99914.66
2023-01-09T16:40:18.343Z,99906.89
2023-01-09T16:43:00.942Z,99906.53
2023-01-09T16:45:29.728Z,99902.40
2023-01-09T16:47:58.370Z,99903.09
2023-01-09T16:50:27.851Z,99909.29
2023-01-09T16:52:56.005Z,99903.95
2023-01-09T16:55:22.879Z,99902.21
2023-01-09T16:57:49.741Z,99908.05
2023-01-09T17:00:19.037Z,99915.38
2023-01-09T17:02:46.073Z,99913.34
2023-01-09T17:05:13.281Z,99915.94
2023-01-09T17:07:42.975Z,99917.16
2023-01-09T17:10:19.272Z,99914.48
2023-01-09T17:12:46.143Z,99915.39
2023-01-09T17:15:13.184Z,99914.73
2023-01-09T17:17:40.283Z,99914.25
2023-01-09T17:20:15.931Z,99914.05
2023-01-09T17:22:43.257Z,99913.39
2023-01-09T17:25:38.321Z,99917.02
2023-01-09T17:28:24.232Z,99916.89
2023-01-09T17:30:56.722Z,99913.36
2023-01-09T17:33:23.654Z,99913.91
2023-01-09T17:35:57.227Z,99920.98
2023-01-09T17:38:27.132Z,99917.39
2023-01-09T17:40:57.224Z,99915.88
2023-01-09T17:43:24.661Z,99918.15
2023-01-09T17:45:51.834Z,99920.25
2023-01-09T17:48:20.930Z,99916.13
2023-01-09T17:50:48.543Z,99914.80
2023-01-09T17:53:16.475Z,99915.66
2023-01-09T17:55:43.634Z,99908.84
2023-01-09T17:58:25.068Z,99908.17
2023-01-09T18:00:52.405Z,99910.83
2023-01-09T18:03:20.988Z,99908.52
2023-01-09T18:05:48.723Z,99904.30
2023-01-09T18:08:16.452Z,99904.88
2023-01-09T18:10:45.707Z,99902.69
2023-01-09T18:13:12.795Z,99908.21
2023-01-09T18:15:42.583Z,99907.72
2023-01-09T18:18:09.889Z,99910.80
2023-01-09T18:20:40.792Z,99910.80
2023-01-09T18:23:08.474Z,99899.80
2023-01-09T18:25:35.735Z,99899.65
2023-01-09T18:28:04.756Z,99899.67
2023-01-09T18:30:31.802Z,99896.94
2023-01-09T18:33:00.620Z,99894.36
2023-01-09T18:35:27.803Z,99891.63
2023-01-09T18:37:54.788Z,99888.15
2023-01-09T18:40:21.902Z,99888.19
2023-01-09T18:42:48.910Z,99889.39
2023-01-09T18:45:16.139Z,99880.48
2023-01-09T18:47:43.362Z,99871.61
2023-01-09T18:50:10.901Z,99869.73
2023-01-09T18:52:38.037Z,99862.37
2023-01-09T18:55:05.687Z,99866.52
2023-01-09T18:57:32.611Z,99865.00
2023-01-09T18:59:59.611Z,99867.92
2023-01-09T19:02:26.694Z,99866.05
2023-01-09T19:04:53.638Z,99869.31
2023-01-09T19:07:23.403Z,99866.74
2023-01-09T19:09:50.582Z,99872.92
2023-01-09T19:12:17.644Z,99882.51
2023-01-09T19:14:44.507Z,99880.30
2023-01-09T19:17:11.393Z,99876.38
2023-01-09T19:19:40.131Z,99879.52
2023-01-09T19:22:07.554Z,99880.71
2023-01-09T19:24:34.742Z,99871.30
2023-01-09T19:27:01.647Z,99877.35
2023-01-09T19:29:29.414Z,99875.80
2023-01-09T19:31:59.611Z,99879.25
2023-01-09T19:34:26.717Z,99881.88
2023-01-09T19:36:54.229Z,99890.94
2023-01-09T19:39:23.222Z,99885.65
2023-01-09T19:41:50.240Z,99885.67
2023-01-09T19:44:19.300Z,99898.21
2023-01-09T19:46:46.380Z,99900.36
2023-01-09T19:49:14.022Z,99901.88
2023-01-09T19:51:47.176Z,99902.13
2023-01-09T19:56:57.449Z,99893.96
2023-01-09T19:59:27.376Z,99891.59
2023-01-09T20:01:55.467Z,99895.86
2023-01-09T20:04:24.903Z,99896.69
2023-01-09T20:06:53.503Z,99892.10
2023-01-09T20:09:29.192Z,99893.84
2023-01-09T20:14:48.547Z,99888.74
2023-01-09T20:17:17.742Z,99880.64
2023-01-09T20:22:31.213Z,99883.79
2023-01-09T20:25:01.174Z,99874.67
2023-01-09T20:27:50.271Z,99871.38
2023-01-09T20:30:32.748Z,99880.19
2023-01-09T20:33:00.326Z,99875.45
2023-01-09T20:35:27.960Z,99888.23
2023-01-09T20:37:54.914Z,99890.36
2023-01-09T20:40:31.814Z,99886.91
2023-01-09T20:43:05.192Z,99889.79
2023-01-09T20:45:41.012Z,99889.62
2023-01-09T20:48:18.907Z,99894.42
2023-01-09T20:50:48.985Z,99883.64
2023-01-09T20:53:21.071Z,99891.04
2023-01-09T20:55:50.141Z,99887.45
2023-01-09T20:58:17.171Z,99889.34
2023-01-09T21:00:44.135Z,99881.13
2023-01-09T21:03:15.656Z,99893.65
2023-01-09T21:05:48.920Z,99896.77
2023-01-09T21:08:18.215Z,99901.23
2023-01-09T21:10:46.531Z,99896.09
2023-01-09T21:13:16.461Z,99902.89
2023-01-09T21:15:46.050Z,99909.19
2023-01-09T21:18:13.005Z,99908.86
2023-01-09T21:20:50.235Z,99904.41
2023-01-09T21:23:17.082Z,99900.76
2023-01-09T21:25:45.465Z,99896.46
2023-01-09T21:28:15.037Z,99906.37
2023-01-09T21:30:42.792Z,99905.48
2023-01-09T21:33:09.773Z,99904.31
2023-01-09T21:35:37.189Z,99905.66
2023-01-09T21:38:04.265Z,99904.91
2023-01-09T21:40:31.163Z,99909.49
2023-01-09T21:43:16.955Z,99906.66
2023-01-09T21:46:19.255Z,99909.84
2023-01-09T21:48:46.179Z,99907.48
2023-01-09T21:51:13.223Z,99910.18
2023-01-09T21:53:40.212Z,99911.08
2023-01-09T21:56:08.008Z,99913.57
2023-01-09T21:58:35.099Z,99913.70
2023-01-09T22:01:03.598Z,99909.13
2023-01-09T22:03:30.552Z,99918.92
2023-01-09T22:05:57.473Z,99920.88
2023-01-09T22:08:24.545Z,99925.77
2023-01-09T22:10:55.825Z,99928.33
2023-01-09T22:13:22.886Z,99928.63
2023-01-09T22:15:50.063Z,99926.90
2023-01-09T22:18:16.923Z,99927.49
2023-01-09T22:20:45.165Z,99932.23
2023-01-09T22:23:12.226Z,99943.52
2023-01-09T22:25:39.165Z,99938.97
2023-01-09T22:28:06.049Z,99937.42
2023-01-09T22:30:32.991Z,99934.30
2023-01-09T22:33:00.860Z,99938.58
2023-01-09T22:35:27.718Z,99940.02
2023-01-09T22:37:54.765Z,99944.22
2023-01-09T22:40:21.747Z,99951.91
2023-01-09T22:42:52.490Z,99950.54
2023-01-09T22:45:19.481Z,99948.10
2023-01-09T22:47:46.561Z,99953.23
2023-01-09T22:50:13.786Z,99955.66
2023-01-09T22:52:41.049Z,99956.33
2023-01-09T22:55:08.953Z,99961.58
2023-01-09T22:57:35.999Z,99961.93
2023-01-09T23:00:03.264Z,99969.89
2023-01-09T23:02:30.347Z,99969.19
2023-01-09T23:05:00.386Z,99970.33
2023-01-09T23:07:27.805Z,99969.02
2023-01-09T23:10:00.693Z,99969.55
2023-01-09T23:12:27.840Z,99972.48
2023-01-09T23:14:54.857Z,99970.71
2023-01-09T23:17:21.756Z,99967.71
2023-01-09T23:19:48.725Z,99971.16
2023-01-09T23:22:15.751Z,99969.48
2023-01-09T23:24:42.731Z,99967.63
2023-01-09T23:27:09.651Z,99968.19
2023-01-09T23:29:38.540Z,99962.95
2023-01-09T23:32:06.996Z,99959.48
2023-01-09T23:34:34.421Z,99966.73
2023-01-09T23:37:01.446Z,99971.33
2023-01-09T23:39:28.315Z,99972.20
2023-01-09T23:42:14.000Z,99979.73
2023-01-09T23:44:41.054Z,99978.39
2023-01-09T23:47:08.017Z,99976.67
2023-01-09T23:49:35.106Z,99978.39
2023-01-09T23:52:05.102Z,99977.23
2023-01-09T23:54:32.524Z,99983.05
2023-01-09T23:56:59.484Z,99980.13
2023-01-09T23:59:26.357Z,99980.64
